createdAt,value
2016-12-07T00:00:15.400Z,21.72
2016-12-07T00:01:26.578Z,21.68
2016-12-07T00:02:37.294Z,21.61
2016-12-07T00:03:48.463Z,21.67
2016-12-07T00:04:59.150Z,21.79
2016-12-07T00:06:10.315Z,21.77
2016-12-07T00:07:21.023Z,21.79
2016-12-07T00:08:31.696Z,21.64
2016-12-07T00:09:42.383Z,21.65
2016-12-07T00:10:53.241Z,21.65
2016-12-07T00:12:03.930Z,21.61
2016-12-07T00:13:14.610Z,21.54
2016-12-07T00:14:25.299Z,21.54
2016-12-07T00:15:35.985Z,21.54
2016-12-07T00:16:46.666Z,21.58
2016-12-07T00:17:57.383Z,21.59
2016-12-07T00:19:08.036Z,21.46
2016-12-07T00:20:18.736Z,21.59
2016-12-07T00:21:29.422Z,21.59
2016-12-07T00:22:40.626Z,21.62
2016-12-07T00:23:51.846Z,21.62
2016-12-07T00:25:02.535Z,21.67
2016-12-07T00:26:13.222Z,21.75
2016-12-07T00:27:23.903Z,21.77
2016-12-07T00:28:34.567Z,21.82
2016-12-07T00:29:45.255Z,21.82
2016-12-07T00:30:55.984Z,21.91
2016-12-07T00:32:06.646Z,21.98
2016-12-07T00:33:17.332Z,21.96
2016-12-07T00:34:27.999Z,22
2016-12-07T00:35:38.671Z,22.06
2016-12-07T00:36:49.909Z,21.99
2016-12-07T00:38:00.632Z,22
2016-12-07T00:39:11.333Z,21.94
2016-12-07T00:40:22.045Z,22.03
2016-12-07T00:41:33.251Z,22.03
2016-12-07T00:42:44.461Z,21.98
2016-12-07T00:43:55.134Z,21.94
2016-12-07T00:45:05.821Z,21.88
2016-12-07T00:46:16.518Z,21.74
2016-12-07T00:47:27.210Z,21.65
2016-12-07T00:48:37.891Z,21.64
2016-12-07T00:49:48.584Z,21.75
2016-12-07T00:50:59.279Z,21.72
2016-12-07T00:52:10.458Z,21.69
2016-12-07T00:53:21.652Z,21.69
2016-12-07T00:54:32.345Z,21.65
2016-12-07T00:55:43.030Z,21.5
2016-12-07T00:56:53.716Z,21.61
2016-12-07T00:58:04.401Z,21.52
2016-12-07T00:59:15.080Z,21.56
2016-12-07T01:00:25.757Z,21.54
2016-12-07T01:01:36.446Z,21.61
2016-12-07T01:02:47.120Z,21.53
2016-12-07T01:03:57.840Z,21.53
2016-12-07T01:05:08.546Z,21.61
2016-12-07T01:06:19.225Z,21.75
2016-12-07T01:07:29.896Z,21.83
2016-12-07T01:08:40.610Z,21.72
2016-12-07T01:09:51.324Z,21.77
2016-12-07T01:11:02.031Z,21.74
2016-12-07T01:12:12.711Z,21.79
2016-12-07T01:13:23.410Z,21.83
2016-12-07T01:14:34.089Z,21.82
2016-12-07T01:15:44.771Z,21.77
2016-12-07T01:16:55.455Z,21.72
2016-12-07T01:18:06.136Z,21.77
2016-12-07T01:19:16.833Z,21.72
2016-12-07T01:20:27.511Z,21.74
2016-12-07T01:21:38.183Z,21.8
2016-12-07T01:22:48.864Z,21.79
2016-12-07T01:23:59.556Z,21.74
2016-12-07T01:25:10.237Z,21.72
2016-12-07T01:26:20.941Z,21.72
2016-12-07T01:27:31.619Z,21.62
2016-12-07T01:28:42.813Z,21.65
2016-12-07T01:29:53.504Z,21.64
2016-12-07T01:31:04.722Z,21.62
2016-12-07T01:32:15.380Z,21.61
2016-12-07T01:33:26.077Z,21.59
2016-12-07T01:34:36.767Z,21.64
2016-12-07T01:35:47.469Z,21.74
2016-12-07T01:36:58.135Z,21.91
2016-12-07T01:38:08.816Z,21.77
2016-12-07T01:39:19.505Z,21.96
2016-12-07T01:40:30.195Z,21.83
2016-12-07T01:41:40.900Z,21.79
2016-12-07T01:42:51.615Z,21.83
2016-12-07T01:44:02.334Z,21.86
2016-12-07T01:45:13.019Z,21.77
2016-12-07T01:46:23.688Z,21.74
2016-12-07T01:47:34.892Z,21.75
2016-12-07T01:48:45.562Z,21.67
2016-12-07T01:49:56.245Z,21.75
2016-12-07T01:51:06.938Z,21.79
2016-12-07T01:52:17.599Z,21.67
2016-12-07T01:53:28.271Z,21.67
2016-12-07T01:54:38.957Z,21.68
2016-12-07T01:55:50.149Z,21.75
2016-12-07T01:57:00.895Z,21.72
2016-12-07T01:58:11.578Z,21.79
2016-12-07T01:59:22.265Z,21.77
2016-12-07T02:00:32.991Z,21.74
2016-12-07T02:01:43.676Z,21.69
2016-12-07T02:02:54.853Z,21.72
2016-12-07T02:04:05.524Z,21.77
2016-12-07T02:05:16.206Z,21.83
2016-12-07T02:06:26.872Z,21.8
2016-12-07T02:07:37.569Z,21.84
2016-12-07T02:08:48.243Z,21.77
2016-12-07T02:09:58.959Z,21.9
2016-12-07T02:11:09.627Z,21.96
2016-12-07T02:12:20.318Z,21.94
2016-12-07T02:13:30.998Z,21.94
2016-12-07T02:14:41.674Z,21.96
2016-12-07T02:15:52.345Z,22
2016-12-07T02:17:03.029Z,21.9
2016-12-07T02:18:13.721Z,21.84
2016-12-07T02:19:24.395Z,21.8
2016-12-07T02:20:35.078Z,21.92
2016-12-07T02:21:45.762Z,21.86
2016-12-07T02:22:56.449Z,21.9
2016-12-07T02:24:07.133Z,21.86
2016-12-07T02:25:17.823Z,21.86
2016-12-07T02:26:29.041Z,21.83
2016-12-07T02:27:39.704Z,21.83
2016-12-07T02:28:50.389Z,21.83
2016-12-07T02:30:01.071Z,21.92
2016-12-07T02:31:12.276Z,21.84
2016-12-07T02:32:22.962Z,21.92
2016-12-07T02:33:33.657Z,21.75
2016-12-07T02:34:44.345Z,21.77
2016-12-07T02:35:55.019Z,21.72
2016-12-07T02:37:05.682Z,21.72
2016-12-07T02:38:16.367Z,21.54
2016-12-07T02:39:27.054Z,21.59
2016-12-07T02:40:37.840Z,21.54
2016-12-07T02:41:48.516Z,21.59
2016-12-07T02:42:59.738Z,21.5
2016-12-07T02:44:10.434Z,21.47
2016-12-07T02:45:21.129Z,21.49
2016-12-07T02:46:31.811Z,21.49
2016-12-07T02:47:42.511Z,21.35
2016-12-07T02:48:53.191Z,21.37
2016-12-07T02:50:03.902Z,21.38
2016-12-07T02:51:14.607Z,21.32
2016-12-07T02:52:25.275Z,21.32
2016-12-07T02:53:35.973Z,21.22
2016-12-07T02:54:46.666Z,21.22
2016-12-07T02:55:57.350Z,21.16
2016-12-07T02:57:08.071Z,20.95
2016-12-07T02:58:18.773Z,20.87
2016-12-07T02:59:29.456Z,20.77
2016-12-07T03:00:40.140Z,20.59
2016-12-07T03:01:50.809Z,20.54
2016-12-07T03:03:01.515Z,20.59
2016-12-07T03:04:12.195Z,20.76
2016-12-07T03:05:22.866Z,20.77
2016-12-07T03:06:33.523Z,20.89
2016-12-07T03:07:44.200Z,20.77
2016-12-07T03:08:54.905Z,20.74
2016-12-07T03:10:05.614Z,20.74
2016-12-07T03:11:16.323Z,20.59
2016-12-07T03:12:27.004Z,20.58
2016-12-07T03:13:37.682Z,20.5
2016-12-07T03:14:48.385Z,20.51
2016-12-07T03:15:59.085Z,20.58
2016-12-07T03:17:09.764Z,20.64
2016-12-07T03:18:20.475Z,20.76
2016-12-07T03:19:31.144Z,20.66
2016-12-07T03:20:41.827Z,20.77
2016-12-07T03:21:52.599Z,20.82
2016-12-07T03:23:03.264Z,20.95
2016-12-07T03:24:13.942Z,20.97
2016-12-07T03:25:24.624Z,21.04
2016-12-07T03:26:35.340Z,20.99
2016-12-07T03:27:46.068Z,21.01
2016-12-07T03:28:56.762Z,20.95
2016-12-07T03:30:07.443Z,20.95
2016-12-07T03:31:18.114Z,20.95
2016-12-07T03:32:28.806Z,20.95
2016-12-07T03:33:39.487Z,20.89
2016-12-07T03:34:50.227Z,20.88
2016-12-07T03:36:00.896Z,20.89
2016-12-07T03:37:11.586Z,20.77
2016-12-07T03:38:22.249Z,20.82
2016-12-07T03:39:32.940Z,20.59
2016-12-07T03:40:43.642Z,20.7
2016-12-07T03:41:54.307Z,20.57
2016-12-07T03:43:05.567Z,20.62
2016-12-07T03:44:16.795Z,20.5
2016-12-07T03:45:27.478Z,20.47
2016-12-07T03:46:38.194Z,20.47
2016-12-07T03:47:48.898Z,20.59
2016-12-07T03:48:59.587Z,20.61
2016-12-07T03:50:10.264Z,20.67
2016-12-07T03:51:21.496Z,20.77
2016-12-07T03:52:32.211Z,20.8
2016-12-07T03:53:42.902Z,20.8
2016-12-07T03:54:53.586Z,20.85
2016-12-07T03:56:04.267Z,20.89
2016-12-07T03:57:14.960Z,21.09
2016-12-07T03:58:25.684Z,21.06
2016-12-07T03:59:36.370Z,21.1
2016-12-07T04:00:47.061Z,21.04
2016-12-07T04:01:57.728Z,21.09
2016-12-07T04:03:08.410Z,21.03
2016-12-07T04:04:19.098Z,20.99
2016-12-07T04:05:29.796Z,21.07
2016-12-07T04:06:40.493Z,21.04
2016-12-07T04:07:51.156Z,21.27
2016-12-07T04:09:01.833Z,21.25
2016-12-07T04:10:12.491Z,21.29
2016-12-07T04:11:23.174Z,21.25
2016-12-07T04:12:33.883Z,21.34
2016-12-07T04:13:44.553Z,21.22
2016-12-07T04:14:55.253Z,21.29
2016-12-07T04:16:05.939Z,21.27
2016-12-07T04:17:16.642Z,21.27
2016-12-07T04:18:27.326Z,21.31
2016-12-07T04:19:37.996Z,21.19
2016-12-07T04:20:49.208Z,21.25
2016-12-07T04:21:59.919Z,21.28
2016-12-07T04:23:10.623Z,21.12
2016-12-07T04:24:21.311Z,21.13
2016-12-07T04:25:32.006Z,21.1
2016-12-07T04:26:42.683Z,21.06
2016-12-07T04:27:53.346Z,21.14
2016-12-07T04:29:04.059Z,21.14
2016-12-07T04:30:14.749Z,21.14
2016-12-07T04:31:25.430Z,21.17
2016-12-07T04:32:36.110Z,21.22
2016-12-07T04:33:46.809Z,21.25
2016-12-07T04:34:58.067Z,21.24
2016-12-07T04:36:09.281Z,21.1
2016-12-07T04:37:19.971Z,21.13
2016-12-07T04:38:30.686Z,21.13
2016-12-07T04:39:41.368Z,21.09
2016-12-07T04:40:52.067Z,21.06
2016-12-07T04:42:02.753Z,20.97
2016-12-07T04:43:13.471Z,20.92
2016-12-07T04:44:24.196Z,20.94
2016-12-07T04:45:34.898Z,20.95
2016-12-07T04:46:45.577Z,20.97
2016-12-07T04:47:56.269Z,20.94
2016-12-07T04:49:06.957Z,20.97
2016-12-07T04:50:17.631Z,20.94
2016-12-07T04:51:28.825Z,20.92
2016-12-07T04:52:39.526Z,20.92
2016-12-07T04:53:50.200Z,20.95
2016-12-07T04:55:00.877Z,20.95
2016-12-07T04:56:11.549Z,20.89
2016-12-07T04:57:22.717Z,20.8
2016-12-07T04:58:33.411Z,20.72
2016-12-07T04:59:44.116Z,20.84
2016-12-07T05:00:54.796Z,20.76
2016-12-07T05:02:05.488Z,20.87
2016-12-07T05:03:16.199Z,20.85
2016-12-07T05:04:26.884Z,20.79
2016-12-07T05:05:37.559Z,20.8
2016-12-07T05:06:48.255Z,20.72
2016-12-07T05:07:58.917Z,20.73
2016-12-07T05:09:09.598Z,20.73
2016-12-07T05:10:20.274Z,20.76
2016-12-07T05:11:30.990Z,20.82
2016-12-07T05:12:41.667Z,20.84
2016-12-07T05:13:52.330Z,20.84
2016-12-07T05:15:03.003Z,20.77
2016-12-07T05:16:13.699Z,20.94
2016-12-07T05:17:24.882Z,20.98
2016-12-07T05:18:35.571Z,20.94
2016-12-07T05:19:46.267Z,20.89
2016-12-07T05:20:56.954Z,20.89
2016-12-07T05:22:07.647Z,20.87
2016-12-07T05:23:18.340Z,20.77
2016-12-07T05:24:29.057Z,20.74
2016-12-07T05:25:39.766Z,20.7
2016-12-07T05:26:50.478Z,20.64
2016-12-07T05:28:01.136Z,20.62
2016-12-07T05:29:11.812Z,20.62
2016-12-07T05:30:22.476Z,20.59
2016-12-07T05:31:33.187Z,20.55
2016-12-07T05:32:43.877Z,20.48
2016-12-07T05:33:54.539Z,20.48
2016-12-07T05:35:05.195Z,20.51
2016-12-07T05:36:15.883Z,20.36
2016-12-07T05:37:26.569Z,20.17
2016-12-07T05:38:37.246Z,20.08
2016-12-07T05:39:47.950Z,20.03
2016-12-07T05:40:58.647Z,20.11
2016-12-07T05:42:09.334Z,20.18
2016-12-07T05:43:20.042Z,20.28
2016-12-07T05:44:30.760Z,20.43
2016-12-07T05:45:41.480Z,20.48
2016-12-07T05:46:52.145Z,20.43
2016-12-07T05:48:02.801Z,20.51
2016-12-07T05:49:13.471Z,20.52
2016-12-07T05:50:24.159Z,20.43
2016-12-07T05:51:34.815Z,20.33
2016-12-07T05:52:45.536Z,20.21
2016-12-07T05:53:56.225Z,20.13
2016-12-07T05:55:06.968Z,20.05
2016-12-07T05:56:18.164Z,19.83
2016-12-07T05:57:28.859Z,19.61
2016-12-07T05:58:39.529Z,19.46
2016-12-07T05:59:50.220Z,19.5
2016-12-07T06:01:01.412Z,19.39
2016-12-07T06:02:12.115Z,19.19
2016-12-07T06:03:22.791Z,19.18
2016-12-07T06:04:33.490Z,19.13
2016-12-07T06:05:44.676Z,19.16
2016-12-07T06:06:55.352Z,19.11
2016-12-07T06:08:06.030Z,19.07
2016-12-07T06:09:16.702Z,19.02
2016-12-07T06:10:27.574Z,19.07
2016-12-07T06:11:38.235Z,18.95
2016-12-07T06:12:48.910Z,19.02
2016-12-07T06:13:59.581Z,19.07
2016-12-07T06:15:10.260Z,19.04
2016-12-07T06:16:20.948Z,18.99
2016-12-07T06:17:31.630Z,18.95
2016-12-07T06:18:42.306Z,18.92
2016-12-07T06:19:52.963Z,19.04
2016-12-07T06:21:03.642Z,19.06
2016-12-07T06:22:14.315Z,19.07
2016-12-07T06:23:25.012Z,19.1
2016-12-07T06:24:35.679Z,19.22
2016-12-07T06:25:46.344Z,19.16
2016-12-07T06:26:57.020Z,19.32
2016-12-07T06:28:07.707Z,19.36
2016-12-07T06:29:18.373Z,19.31
2016-12-07T06:30:29.026Z,19.44
2016-12-07T06:31:39.708Z,19.48
2016-12-07T06:32:50.373Z,19.58
2016-12-07T06:34:01.070Z,19.66
2016-12-07T06:35:11.771Z,19.78
2016-12-07T06:36:22.446Z,19.86
2016-12-07T06:37:33.242Z,19.78
2016-12-07T06:38:43.972Z,19.84
2016-12-07T06:39:54.648Z,19.84
2016-12-07T06:41:05.336Z,19.87
2016-12-07T06:42:17.043Z,19.86
2016-12-07T06:43:28.270Z,19.87
2016-12-07T06:44:38.942Z,19.84
2016-12-07T06:45:49.612Z,19.84
2016-12-07T06:47:00.304Z,19.86
2016-12-07T06:48:10.990Z,19.76
2016-12-07T06:49:21.662Z,19.74
2016-12-07T06:50:32.335Z,19.77
2016-12-07T06:51:42.991Z,19.69
2016-12-07T06:52:53.682Z,19.61
2016-12-07T06:54:04.358Z,19.65
2016-12-07T06:55:15.033Z,19.54
2016-12-07T06:56:25.704Z,19.51
2016-12-07T06:57:36.407Z,19.51
2016-12-07T06:58:47.137Z,19.46
2016-12-07T06:59:57.817Z,19.44
2016-12-07T07:01:08.506Z,19.4
2016-12-07T07:02:19.209Z,19.37
2016-12-07T07:03:29.902Z,19.43
2016-12-07T07:04:40.566Z,19.36
2016-12-07T07:05:51.761Z,19.41
2016-12-07T07:07:02.458Z,19.51
2016-12-07T07:08:13.156Z,19.44
2016-12-07T07:09:24.363Z,19.55
2016-12-07T07:10:35.044Z,19.63
2016-12-07T07:11:45.724Z,19.8
2016-12-07T07:12:56.404Z,19.74
2016-12-07T07:14:07.097Z,19.94
2016-12-07T07:15:17.806Z,20.02
2016-12-07T07:16:28.521Z,19.96
2016-12-07T07:17:39.197Z,20.05
2016-12-07T07:18:49.893Z,20.08
2016-12-07T07:20:00.561Z,19.98
2016-12-07T07:21:11.268Z,20.01
2016-12-07T07:22:21.945Z,19.95
2016-12-07T07:23:32.637Z,19.88
2016-12-07T07:24:43.334Z,19.84
2016-12-07T07:25:54.045Z,19.84
2016-12-07T07:27:04.744Z,19.92
2016-12-07T07:28:15.449Z,20.02
2016-12-07T07:29:26.129Z,19.84
2016-12-07T07:30:36.822Z,19.84
2016-12-07T07:31:47.524Z,19.77
2016-12-07T07:32:58.195Z,19.54
2016-12-07T07:34:08.886Z,19.4
2016-12-07T07:35:19.582Z,19.41
2016-12-07T07:36:30.293Z,19.39
2016-12-07T07:37:40.981Z,19.31
2016-12-07T07:38:51.674Z,19.32
2016-12-07T07:40:02.381Z,19.22
2016-12-07T07:41:13.097Z,19.19
2016-12-07T07:42:23.783Z,19.11
2016-12-07T07:43:34.465Z,19.18
2016-12-07T07:44:45.155Z,19.07
2016-12-07T07:45:55.848Z,19.07
2016-12-07T07:47:06.536Z,19.19
2016-12-07T07:48:17.252Z,19.18
2016-12-07T07:49:27.977Z,19.19
2016-12-07T07:50:38.668Z,19.13
2016-12-07T07:51:49.352Z,19.19
2016-12-07T07:53:00.066Z,19.18
2016-12-07T07:54:10.772Z,19.26
2016-12-07T07:55:21.475Z,19.32
2016-12-07T07:56:32.157Z,19.32
2016-12-07T07:57:42.839Z,19.4
2016-12-07T07:58:53.501Z,19.4
2016-12-07T08:00:04.211Z,19.22
2016-12-07T08:01:14.944Z,19.19
2016-12-07T08:02:25.655Z,19.16
2016-12-07T08:03:36.351Z,19.14
2016-12-07T08:04:47.039Z,19.02
2016-12-07T08:05:57.719Z,19
2016-12-07T08:07:08.925Z,19.06
2016-12-07T08:08:20.143Z,19
2016-12-07T08:09:30.819Z,18.88
2016-12-07T08:10:41.506Z,18.85
2016-12-07T08:11:52.187Z,18.87
2016-12-07T08:13:02.896Z,18.87
2016-12-07T08:14:13.556Z,18.82
2016-12-07T08:15:24.251Z,18.75
2016-12-07T08:16:34.942Z,18.7
2016-12-07T08:17:46.156Z,18.76
2016-12-07T08:18:56.818Z,18.85
2016-12-07T08:20:07.526Z,18.92
2016-12-07T08:21:18.224Z,19.06
2016-12-07T08:22:28.913Z,19.07
2016-12-07T08:23:39.592Z,19.21
2016-12-07T08:24:50.287Z,19.22
2016-12-07T08:26:00.991Z,19.4
2016-12-07T08:27:11.685Z,19.43
2016-12-07T08:28:22.919Z,19.48
2016-12-07T08:29:33.656Z,19.61
2016-12-07T08:30:44.355Z,19.71
2016-12-07T08:31:55.020Z,19.84
2016-12-07T08:33:06.241Z,19.94
2016-12-07T08:34:16.948Z,19.96
2016-12-07T08:35:27.671Z,20.1
2016-12-07T08:36:38.356Z,20.28
2016-12-07T08:37:49.029Z,20.28
2016-12-07T08:38:59.715Z,20.48
2016-12-07T08:40:10.433Z,20.52
2016-12-07T08:41:21.079Z,20.58
2016-12-07T08:42:31.755Z,20.77
2016-12-07T08:43:42.469Z,20.73
2016-12-07T08:44:53.682Z,20.91
2016-12-07T08:46:04.488Z,20.99
2016-12-07T08:47:15.170Z,21.07
2016-12-07T08:48:25.870Z,21.13
2016-12-07T08:49:36.568Z,21.21
2016-12-07T08:50:47.254Z,21.31
2016-12-07T08:51:57.928Z,21.47
2016-12-07T08:53:08.645Z,21.52
2016-12-07T08:54:19.340Z,21.68
2016-12-07T08:55:30.017Z,21.88
2016-12-07T08:56:40.730Z,22.09
2016-12-07T08:57:51.421Z,22.33
2016-12-07T08:59:02.119Z,22.55
2016-12-07T09:00:12.829Z,22.67
2016-12-07T09:01:23.528Z,22.97
2016-12-07T09:02:34.207Z,23.07
2016-12-07T09:03:44.885Z,23
2016-12-07T09:04:56.094Z,22.92
2016-12-07T09:06:06.790Z,22.76
2016-12-07T09:07:17.506Z,22.83
2016-12-07T09:08:28.179Z,22.61
2016-12-07T09:09:38.877Z,22.61
2016-12-07T09:10:49.542Z,22.62
2016-12-07T09:12:00.243Z,22.51
2016-12-07T09:13:10.904Z,22.49
2016-12-07T09:14:21.632Z,22.46
2016-12-07T09:15:32.315Z,22.57
2016-12-07T09:16:43.185Z,22.4
2016-12-07T09:17:53.948Z,22.28
2016-12-07T09:19:04.625Z,22.37
2016-12-07T09:20:15.344Z,22.39
2016-12-07T09:21:26.040Z,22.54
2016-12-07T09:22:36.720Z,22.79
2016-12-07T09:23:47.415Z,23.16
2016-12-07T09:24:58.618Z,23.61
2016-12-07T09:26:09.871Z,23.91
2016-12-07T09:27:20.570Z,24.22
2016-12-07T09:28:31.246Z,24.55
2016-12-07T09:29:41.971Z,24.73
2016-12-07T09:30:52.647Z,24.98
2016-12-07T09:32:03.330Z,25.25
2016-12-07T09:33:14.030Z,25.58
2016-12-07T09:34:25.235Z,25.67
2016-12-07T09:35:35.926Z,25.69
2016-12-07T09:36:46.627Z,25.82
2016-12-07T09:37:57.385Z,26.01
2016-12-07T09:39:08.074Z,26.15
2016-12-07T09:40:19.249Z,26.26
2016-12-07T09:41:29.957Z,26.3
2016-12-07T09:42:40.672Z,26.45
2016-12-07T09:43:51.359Z,26.65
2016-12-07T09:45:02.039Z,26.63
2016-12-07T09:46:12.764Z,26.73
2016-12-07T09:47:23.475Z,26.81
2016-12-07T09:48:34.148Z,26.87
2016-12-07T09:49:44.846Z,26.91
2016-12-07T09:50:55.536Z,27.03
2016-12-07T09:52:06.246Z,27.24
2016-12-07T09:53:16.959Z,27.25
2016-12-07T09:54:27.681Z,27.31
2016-12-07T09:55:38.386Z,27.44
2016-12-07T09:56:49.587Z,27.57
2016-12-07T09:58:00.281Z,27.66
2016-12-07T09:59:10.959Z,27.87
2016-12-07T10:00:21.687Z,28.12
2016-12-07T10:01:32.408Z,28.15
2016-12-07T10:02:43.100Z,28.39
2016-12-07T10:03:53.809Z,28.43
2016-12-07T10:05:04.522Z,28.37
2016-12-07T10:06:15.219Z,28.33
2016-12-07T10:07:25.951Z,28.31
2016-12-07T10:08:36.648Z,28.12
2016-12-07T10:09:47.374Z,27.96
2016-12-07T10:10:58.080Z,27.93
2016-12-07T10:12:08.786Z,27.74
2016-12-07T10:13:19.480Z,27.54
2016-12-07T10:14:30.160Z,27.03
2016-12-07T10:15:40.849Z,26.94
2016-12-07T10:16:52.028Z,27.25
2016-12-07T10:18:02.703Z,27.75
2016-12-07T10:19:13.885Z,27.87
2016-12-07T10:20:24.586Z,28.17
2016-12-07T10:21:35.282Z,28.18
2016-12-07T10:22:46.014Z,28
2016-12-07T10:23:57.246Z,27.6
2016-12-07T10:25:07.955Z,27.43
2016-12-07T10:26:18.646Z,27
2016-12-07T10:27:29.343Z,27.09
2016-12-07T10:28:40.045Z,27
2016-12-07T10:29:50.818Z,27.06
2016-12-07T10:31:01.877Z,27.1
2016-12-07T10:32:12.583Z,27.41
2016-12-07T10:33:23.310Z,27.59
2016-12-07T10:34:33.986Z,27.43
2016-12-07T10:35:44.705Z,27.41
2016-12-07T10:36:55.451Z,27.21
2016-12-07T10:38:06.180Z,27.07
2016-12-07T10:39:16.861Z,27.28
2016-12-07T10:40:27.537Z,27.5
2016-12-07T10:41:38.226Z,27.5
2016-12-07T10:42:48.911Z,27.66
2016-12-07T10:43:59.610Z,27.78
2016-12-07T10:45:10.320Z,27.5
2016-12-07T10:46:21.013Z,27.43
2016-12-07T10:47:31.756Z,27.21
2016-12-07T10:48:42.444Z,27.02
2016-12-07T10:49:53.109Z,27.21
2016-12-07T10:51:03.811Z,27.12
2016-12-07T10:52:14.505Z,27.12
2016-12-07T10:53:25.222Z,27.37
2016-12-07T10:54:35.932Z,27.99
2016-12-07T10:55:46.612Z,28.21
2016-12-07T10:56:57.453Z,28.33
2016-12-07T10:58:08.134Z,28.73
2016-12-07T10:59:18.824Z,29.16
2016-12-07T11:00:29.523Z,28.83
2016-12-07T11:01:40.211Z,28.74
2016-12-07T11:02:51.440Z,29.08
2016-12-07T11:04:02.861Z,29.36
2016-12-07T11:05:13.563Z,29.39
2016-12-07T11:06:24.280Z,29.76
2016-12-07T11:07:35.009Z,30.38
2016-12-07T11:08:45.707Z,30.76
2016-12-07T11:09:56.422Z,31.04
2016-12-07T11:11:07.135Z,31.14
2016-12-07T11:12:17.828Z,31.23
2016-12-07T11:13:29.037Z,30.86
2016-12-07T11:14:39.714Z,30.53
2016-12-07T11:15:50.909Z,30.32
2016-12-07T11:17:01.599Z,30.24
2016-12-07T11:18:12.258Z,30.13
2016-12-07T11:19:22.950Z,29.68
2016-12-07T11:20:33.700Z,29.14
2016-12-07T11:21:44.413Z,29.34
2016-12-07T11:22:55.096Z,29.65
2016-12-07T11:24:05.783Z,30.16
2016-12-07T11:25:16.513Z,30.54
2016-12-07T11:26:27.251Z,30.77
2016-12-07T11:27:37.945Z,30.62
2016-12-07T11:28:48.657Z,30.46
2016-12-07T11:29:59.348Z,30.61
2016-12-07T11:31:10.079Z,30.65
2016-12-07T11:32:20.764Z,30.46
2016-12-07T11:33:31.473Z,30.17
2016-12-07T11:34:42.192Z,29.42
2016-12-07T11:35:53.404Z,29.09
2016-12-07T11:37:04.658Z,28.77
2016-12-07T11:38:15.384Z,28.96
2016-12-07T11:39:26.097Z,28.73
2016-12-07T11:40:36.797Z,28.56
2016-12-07T11:41:47.487Z,28.76
2016-12-07T11:42:58.169Z,28.88
2016-12-07T11:44:08.863Z,29.11
2016-12-07T11:45:19.570Z,29.6
2016-12-07T11:46:36.621Z,29.55
2016-12-07T11:47:50.368Z,29
2016-12-07T11:49:01.050Z,28.76
2016-12-07T11:50:11.774Z,28.77
2016-12-07T11:51:22.484Z,28.76
2016-12-07T11:52:33.196Z,28.81
2016-12-07T11:53:43.938Z,29.14
2016-12-07T11:54:55.155Z,29.68
2016-12-07T11:56:06.363Z,30.04
2016-12-07T11:57:17.064Z,29.98
2016-12-07T11:58:27.784Z,29.63
2016-12-07T11:59:38.491Z,29.43
2016-12-07T12:00:49.230Z,29.26
2016-12-07T12:01:59.915Z,29
2016-12-07T12:03:10.650Z,29.14
2016-12-07T12:04:21.877Z,29.6
2016-12-07T12:05:32.596Z,30.02
2016-12-07T12:06:43.296Z,29.86
2016-12-07T12:07:53.992Z,30.16
2016-12-07T12:09:04.706Z,30.67
2016-12-07T12:10:15.917Z,30.73
2016-12-07T12:11:26.657Z,30.46
2016-12-07T12:12:37.876Z,30.7
2016-12-07T12:13:48.604Z,31.12
2016-12-07T12:14:59.285Z,31.48
2016-12-07T12:16:10.040Z,31.54
2016-12-07T12:17:21.241Z,31.81
2016-12-07T12:18:31.949Z,31.81
2016-12-07T12:19:42.637Z,31.76
2016-12-07T12:20:53.363Z,31.26
2016-12-07T12:22:04.788Z,31.48
2016-12-07T12:23:15.493Z,32
2016-12-07T12:24:26.177Z,32.5
2016-12-07T12:25:36.897Z,32.87
2016-12-07T12:26:47.643Z,32.99
2016-12-07T12:27:58.864Z,33.06
2016-12-07T12:29:09.593Z,33.39
2016-12-07T12:30:20.294Z,33.39
2016-12-07T12:31:31.061Z,32.48
2016-12-07T12:32:41.813Z,31.95
2016-12-07T12:33:52.537Z,32.06
2016-12-07T12:35:03.278Z,32.48
2016-12-07T12:36:14.484Z,32.69
2016-12-07T12:37:25.675Z,32.56
2016-12-07T12:38:36.391Z,32.01
2016-12-07T12:39:47.103Z,31.91
2016-12-07T12:40:57.832Z,31.95
2016-12-07T12:42:09.047Z,32.29
2016-12-07T12:43:19.782Z,32.57
2016-12-07T12:44:31.007Z,33
2016-12-07T12:45:42.510Z,33.16
2016-12-07T12:46:54.843Z,33.47
2016-12-07T12:48:07.972Z,33.56
2016-12-07T12:49:20.621Z,33.66
2016-12-07T12:50:33.502Z,33.93
2016-12-07T12:51:45.785Z,33.09
2016-12-07T12:52:56.694Z,32.23
2016-12-07T12:54:07.799Z,31.66
